createdAt,value
2022-11-18T00:04:22.773Z,87.2
2022-11-18T00:09:22.783Z,87.2
2022-11-18T00:14:22.764Z,87.7
2022-11-18T00:19:22.760Z,87.5
2022-11-18T00:24:22.758Z,87
2022-11-18T00:29:22.799Z,86.2
2022-11-18T00:34:22.758Z,86.5
2022-11-18T00:39:22.752Z,86.6
2022-11-18T00:44:22.765Z,86.5
2022-11-18T00:49:22.971Z,85.9
2022-11-18T00:54:22.771Z,85.6
2022-11-18T00:59:22.756Z,85.3
2022-11-18T01:04:22.782Z,85.2
2022-11-18T01:09:22.809Z,85.2
2022-11-18T01:14:22.765Z,84.9
2022-11-18T01:19:22.760Z,84.8
2022-11-18T01:24:22.756Z,84.6
2022-11-18T01:29:22.775Z,84.7
2022-11-18T01:34:22.762Z,85.1
2022-11-18T01:39:22.756Z,85.3
2022-11-18T01:44:22.765Z,85.6
2022-11-18T01:49:22.776Z,85.5
2022-11-18T01:54:22.915Z,85.3
2022-11-18T01:59:22.761Z,85.5
2022-11-18T02:04:22.776Z,85.4
2022-11-18T02:09:22.792Z,86.2
2022-11-18T02:14:22.778Z,86.6
2022-11-18T02:19:22.767Z,86.4
2022-11-18T02:24:22.768Z,86.5
2022-11-18T02:29:22.783Z,86.7
2022-11-18T02:34:22.730Z,86.5
2022-11-18T02:39:22.778Z,86.5
2022-11-18T02:44:22.776Z,86
2022-11-18T02:49:22.744Z,85.5
2022-11-18T02:54:22.764Z,86.3
2022-11-18T02:59:22.768Z,85.2
2022-11-18T03:04:22.762Z,85.2
2022-11-18T03:09:22.843Z,85.3
2022-11-18T03:14:22.761Z,85.4
2022-11-18T03:19:22.768Z,85.9
2022-11-18T03:24:22.763Z,85.5
2022-11-18T03:29:22.777Z,85.9
2022-11-18T03:34:22.759Z,86.8
2022-11-18T03:39:22.754Z,87.2
2022-11-18T03:44:22.762Z,87.7
2022-11-18T03:49:22.775Z,88.4
2022-11-18T03:54:22.761Z,89
2022-11-18T03:59:22.896Z,89.7
2022-11-18T04:04:22.780Z,90
2022-11-18T04:09:22.782Z,90
2022-11-18T04:14:22.759Z,90
2022-11-18T04:19:22.895Z,90.3
2022-11-18T04:24:22.762Z,91.8
2022-11-18T04:29:22.755Z,90.8
2022-11-18T04:34:22.788Z,90.7
2022-11-18T04:39:22.716Z,92
2022-11-18T04:44:22.773Z,91.5
2022-11-18T04:49:22.754Z,91.5
2022-11-18T04:54:22.777Z,90.5
2022-11-18T04:59:22.980Z,90.3
2022-11-18T05:04:22.802Z,88.1
2022-11-18T05:09:24.859Z,87.1
2022-11-18T05:14:22.770Z,86.1
2022-11-18T05:19:22.775Z,85.2
2022-11-18T05:24:22.774Z,84.6
2022-11-18T05:29:22.792Z,88.5
2022-11-18T05:34:22.785Z,85.3
2022-11-18T05:39:22.763Z,83.4
2022-11-18T05:44:22.773Z,82
2022-11-18T05:49:22.793Z,81.3
2022-11-18T05:54:22.776Z,80.5
2022-11-18T05:59:23.073Z,79.9
2022-11-18T06:04:22.780Z,79.5
2022-11-18T06:09:22.785Z,81.8
2022-11-18T06:14:22.764Z,80.1
2022-11-18T06:19:22.766Z,79
2022-11-18T06:24:22.804Z,78.7
2022-11-18T06:29:27.356Z,77.7
2022-11-18T06:34:22.777Z,76.1
2022-11-18T06:39:22.739Z,76
2022-11-18T06:44:22.784Z,75.7
2022-11-18T06:49:22.845Z,75.7
2022-11-18T06:54:22.779Z,76.2
2022-11-18T06:59:22.728Z,74.7
2022-11-18T07:04:22.813Z,74.1
2022-11-18T07:09:22.800Z,73.8
2022-11-18T07:14:22.773Z,73.2
2022-11-18T07:19:22.779Z,73.3
2022-11-18T07:24:22.773Z,73.4
2022-11-18T07:29:22.787Z,73.2
2022-11-18T07:34:22.776Z,73.1
2022-11-18T07:39:22.786Z,72.5
2022-11-18T07:44:22.915Z,73
2022-11-18T07:49:22.776Z,71.9
2022-11-18T07:54:22.781Z,72.3
2022-11-18T07:59:22.739Z,72.1
2022-11-18T08:04:22.859Z,71.7
2022-11-18T08:09:22.793Z,72
2022-11-18T08:14:22.795Z,71.6
2022-11-18T08:19:22.757Z,71.6
2022-11-18T08:24:22.768Z,71.4
2022-11-18T08:29:25.188Z,71.2
2022-11-18T08:34:22.751Z,71.4
2022-11-18T08:39:22.762Z,70
2022-11-18T08:44:22.782Z,69.9
2022-11-18T08:49:22.787Z,70
2022-11-18T08:54:22.767Z,70.2
2022-11-18T08:59:22.776Z,70.7
2022-11-18T09:04:22.744Z,70.7
2022-11-18T09:09:23.021Z,70.3
2022-11-18T09:19:50.609Z,69.7
2022-11-18T09:24:22.758Z,69.8
2022-11-18T09:29:22.823Z,69.8
2022-11-18T09:34:22.782Z,69.4
2022-11-18T09:39:22.781Z,69.3
2022-11-18T09:44:23.003Z,69.6
2022-11-18T09:49:22.827Z,69.8
2022-11-18T09:54:22.765Z,69.9
2022-11-18T09:59:22.766Z,70.3
2022-11-18T10:04:22.759Z,70.8
2022-11-18T10:09:22.788Z,70.4
2022-11-18T10:14:22.764Z,70.1
2022-11-18T10:19:22.766Z,70
2022-11-18T10:24:22.746Z,69.9
2022-11-18T10:29:22.858Z,69.5
2022-11-18T10:34:22.773Z,69.1
2022-11-18T10:39:22.783Z,68.8
2022-11-18T10:44:22.972Z,68.8
2022-11-18T10:49:22.841Z,68.3
2022-11-18T10:54:22.760Z,67.9
2022-11-18T10:59:22.772Z,67.7
2022-11-18T11:04:22.798Z,68.1
2022-11-18T11:09:22.777Z,67.6
2022-11-18T11:14:25.415Z,67.2
2022-11-18T11:19:22.842Z,67
2022-11-18T11:24:22.746Z,66.5
2022-11-18T11:29:22.752Z,66.3
2022-11-18T11:34:22.731Z,66.6
2022-11-18T11:39:22.731Z,66.8
2022-11-18T11:44:22.732Z,65.4
2022-11-18T11:49:22.747Z,66.5
2022-11-18T11:54:22.745Z,65.6
2022-11-18T11:59:22.730Z,64.6
2022-11-18T12:04:22.741Z,64.2
2022-11-18T12:09:22.943Z,63.5
2022-11-18T12:14:22.718Z,62.6
2022-11-18T12:19:22.752Z,63.2
2022-11-18T12:24:22.737Z,63.6
2022-11-18T12:29:22.930Z,61.9
2022-11-18T12:34:22.729Z,61.3
2022-11-18T12:39:22.812Z,60.7
2022-11-18T12:44:22.733Z,59.4
2022-11-18T12:49:22.768Z,58.9
2022-11-18T12:54:22.733Z,59.1
2022-11-18T12:59:22.757Z,59.2
2022-11-18T13:04:22.763Z,59.3
2022-11-18T13:09:22.751Z,59.6
2022-11-18T13:14:22.710Z,60.8
2022-11-18T13:19:22.728Z,60.1
2022-11-18T13:24:22.933Z,60.8
2022-11-18T13:29:22.740Z,63.5
2022-11-18T13:34:22.744Z,61.5
2022-11-18T13:39:22.755Z,61.7
2022-11-18T13:44:24.523Z,61.7
2022-11-18T13:49:22.938Z,61.6
2022-11-18T13:54:22.729Z,60.8
2022-11-18T13:59:22.726Z,60
2022-11-18T14:04:22.817Z,59.6
2022-11-18T14:09:22.764Z,59.3
2022-11-18T14:14:22.741Z,58.7
2022-11-18T14:19:22.776Z,59
2022-11-18T14:24:22.815Z,58.4
2022-11-18T14:29:22.733Z,58.2
2022-11-18T14:34:22.750Z,58.2
2022-11-18T14:39:26.948Z,58.2
2022-11-18T14:44:22.782Z,58.3
2022-11-18T14:49:23.113Z,58.3
2022-11-18T14:54:26.191Z,58.3
2022-11-18T14:59:22.753Z,58.5
2022-11-18T15:04:22.787Z,58.4
2022-11-18T15:09:22.950Z,58.5
2022-11-18T15:14:22.762Z,58.6
2022-11-18T15:19:22.772Z,58.6
2022-11-18T15:24:22.765Z,59.1
2022-11-18T15:29:22.802Z,59.3
2022-11-18T15:34:22.973Z,59.2
2022-11-18T15:39:22.785Z,59.4
2022-11-18T15:44:22.922Z,59.6
2022-11-18T15:49:22.797Z,59.7
2022-11-18T15:54:22.788Z,59.9
2022-11-18T15:59:22.783Z,59.8
2022-11-18T16:04:22.957Z,60
2022-11-18T16:09:22.822Z,60.3
2022-11-18T16:14:23.223Z,60.7
2022-11-18T16:19:22.782Z,60.8
2022-11-18T16:24:22.915Z,61
2022-11-18T16:29:23.187Z,61.8
2022-11-18T16:34:22.786Z,61.6
2022-11-18T16:39:22.806Z,61.6
2022-11-18T16:44:22.848Z,62.2
2022-11-18T16:49:22.837Z,62.5
2022-11-18T16:54:22.790Z,62.5
2022-11-18T16:59:22.789Z,62.8
2022-11-18T17:04:23.880Z,62.6
2022-11-18T17:09:23.003Z,62.9
2022-11-18T17:14:22.825Z,63.3
2022-11-18T17:19:23.124Z,63.1
2022-11-18T17:24:23.047Z,63.4
2022-11-18T17:29:22.821Z,63.6
2022-11-18T17:34:22.834Z,63.6
2022-11-18T17:39:22.818Z,63.9
2022-11-18T17:44:22.854Z,63.9
2022-11-18T17:49:22.799Z,64
2022-11-18T17:54:23.038Z,64.2
2022-11-18T17:59:22.904Z,63.8
2022-11-18T18:04:23.007Z,63.8
2022-11-18T18:09:26.864Z,64.5
2022-11-18T18:14:23.024Z,64.5
2022-11-18T18:19:22.888Z,64.5
2022-11-18T18:24:23.426Z,64.8
2022-11-18T18:29:22.904Z,64.9
2022-11-18T18:34:22.921Z,65.3
2022-11-18T18:39:22.913Z,65.3
2022-11-18T18:44:23.017Z,65.6
2022-11-18T18:49:22.919Z,65.7
2022-11-18T18:54:23.090Z,65.9
2022-11-18T18:59:22.925Z,65.6
2022-11-18T19:04:23.024Z,66
2022-11-18T19:09:22.999Z,65.9
2022-11-18T19:14:22.914Z,65.9
2022-11-18T19:19:23.273Z,66.1
2022-11-18T19:24:47.988Z,66.2
2022-11-18T19:29:25.502Z,66.4
2022-11-18T19:34:23.098Z,66.4
2022-11-18T19:39:23.388Z,66.7
2022-11-18T19:44:23.550Z,66.9
2022-11-18T19:49:23.038Z,66.8
2022-11-18T19:54:23.063Z,67.1
2022-11-18T19:59:23.070Z,66.9
2022-11-18T20:04:23.155Z,67.1
2022-11-18T20:09:23.095Z,67.4
2022-11-18T20:14:23.056Z,67.4
2022-11-18T20:19:23.246Z,67.5
2022-11-18T20:24:23.102Z,67.5
2022-11-18T20:29:23.065Z,67.6
2022-11-18T20:34:23.048Z,67.7
2022-11-18T20:39:23.181Z,67.7
2022-11-18T20:44:23.110Z,67.6
2022-11-18T20:49:23.047Z,67.6
2022-11-18T20:54:23.058Z,67.6
2022-11-18T20:59:23.034Z,68
2022-11-18T21:04:23.174Z,68.5
2022-11-18T21:09:23.056Z,68.5
2022-11-18T21:14:24.681Z,68.3
2022-11-18T21:19:23.054Z,68.2
2022-11-18T21:24:23.177Z,68.2
2022-11-18T21:29:23.033Z,68.6
2022-11-18T21:34:23.055Z,68.6
2022-11-18T21:39:23.021Z,68.7
2022-11-18T21:44:23.078Z,69.3
2022-11-18T21:49:23.332Z,69.2
2022-11-18T21:54:23.085Z,68.9
2022-11-18T21:59:23.037Z,68.8
2022-11-18T22:04:23.048Z,68.5
2022-11-18T22:09:23.012Z,68.2
2022-11-18T22:14:23.053Z,68.3
2022-11-18T22:19:23.174Z,68.2
2022-11-18T22:24:23.091Z,68.3
2022-11-18T22:29:23.014Z,68.5
2022-11-18T22:34:23.026Z,68.7
2022-11-18T22:39:23.124Z,68.7
2022-11-18T22:44:23.047Z,68.4
2022-11-18T22:49:23.040Z,68.7
2022-11-18T22:54:39.747Z,68.4
2022-11-18T22:59:23.035Z,67.6
2022-11-18T23:04:23.057Z,67
2022-11-18T23:09:23.024Z,66.9
2022-11-18T23:14:23.013Z,67.6
2022-11-18T23:19:23.368Z,67.8
2022-11-18T23:24:23.101Z,68.8
2022-11-18T23:29:23.262Z,68.6
2022-11-18T23:34:23.177Z,68.9
2022-11-18T23:39:23.200Z,69.5
2022-11-18T23:44:23.579Z,69.4
2022-11-18T23:49:23.282Z,68.4
2022-11-18T23:54:23.544Z,68.1
2022-11-18T23:59:23.394Z,69.4
